Time;durP1;ratioP1;P1;durP2;ratioP2;P2;SDS_P1;SDS_P2;PMS_P1;PMS_P2;Temp;Humidity;BMP_temperature;BMP_pressure;BME280_temperature;BME280_humidity;BME280_pressure;Samples;Min_cycle;Max_cycle;Signal;HPM_P1;HPM_P2
2022/10/02 00:02:19;;;;;;;17.13;4.80;;;;;;;11.67;100.00;68062.38;4985783;28;20054;-81
2022/10/02 00:05:09;;;;;;;17.17;5.22;;;;;;;11.66;100.00;68063.34;4991489;28;20045;-80
2022/10/02 00:07:50;;;;;;;21.20;5.30;;;;;;;;;;4970427;28;20042;-81
2022/10/02 00:10:30;;;;;;;20.65;5.47;;;;;;;11.67;100.00;68064.47;4986545;28;20418;-80
2022/10/02 00:12:59;;;;;;;21.00;6.60;;;;;;;;;;4989823;28;20149;-79
2022/10/02 00:15:30;;;;;;;21.70;5.28;;;;;;;11.69;100.00;68066.75;4989657;28;20542;-82
2022/10/02 00:18:02;;;;;;;16.75;5.63;;;;;;;;;;4990897;28;20092;-82
2022/10/02 00:20:38;;;;;;;20.70;6.40;;;;;;;11.76;100.00;68072.03;4992765;28;20133;-80
2022/10/02 00:23:07;;;;;;;21.08;6.47;;;;;;;;;;4991101;28;20065;-82
2022/10/02 00:25:38;;;;;;;22.65;6.45;;;;;;;11.81;100.00;68085.16;4990994;28;20266;-80
2022/10/02 00:28:09;;;;;;;23.13;6.07;;;;;;;11.85;100.00;68084.34;4990667;28;20096;-82
2022/10/02 00:30:54;;;;;;;15.85;6.13;;;;;;;;;;4991177;28;20101;-81
2022/10/02 00:33:33;;;;;;;21.27;6.15;;;;;;;11.89;100.00;68088.94;4990668;28;20050;-83
2022/10/02 00:36:21;;;;;;;13.73;5.20;;;;;;;11.90;100.00;68090.63;4993544;28;20043;-82
2022/10/02 00:38:50;;;;;;;14.60;5.37;;;;;;;11.93;100.00;68094.03;4971950;28;20058;-80
2022/10/02 00:41:31;;;;;;;20.52;6.40;;;;;;;11.96;100.00;68102.78;4991027;28;20864;-82
2022/10/02 00:44:13;;;;;;;18.08;5.70;;;;;;;12.02;100.00;68108.44;4990120;28;20504;-81
2022/10/02 00:47:09;;;;;;;17.33;5.40;;;;;;;12.05;100.00;68103.84;4989378;28;20148;-81
2022/10/02 00:49:37;;;;;;;20.20;5.45;;;;;;;;;;4990016;28;20057;-81
2022/10/02 00:52:46;;;;;;;24.92;6.63;;;;;;;12.12;100.00;68114.50;4987772;28;20166;-82
2022/10/02 00:55:31;;;;;;;19.92;4.65;;;;;;;;;;4938809;28;20049;-81
2022/10/02 00:58:30;;;;;;;19.65;6.15;;;;;;;12.16;100.00;68119.03;4992068;28;20057;-81
2022/10/02 01:01:02;;;;;;;19.90;5.55;;;;;;;;;;4969899;28;20042;-80
2022/10/02 01:03:43;;;;;;;21.02;6.00;;;;;;;12.21;100.00;68124.72;4992100;28;20057;-80
2022/10/02 01:06:09;;;;;;;16.35;5.32;;;;;;;;;;4991794;28;20421;-81
2022/10/02 01:08:35;;;;;;;16.00;4.93;;;;;;;12.26;100.00;68127.72;4994470;28;20038;-81
2022/10/02 01:11:02;;;;;;;23.35;6.45;;;;;;;12.27;100.00;68136.88;4997388;28;20073;-80
2022/10/02 01:13:29;;;;;;;21.00;5.22;;;;;;;12.27;100.00;68128.28;4988104;28;20074;-81
2022/10/02 01:15:55;;;;;;;17.92;5.93;;;;;;;;;;4992747;28;20037;-81
2022/10/02 01:18:21;;;;;;;17.38;6.10;;;;;;;12.25;100.00;68129.25;4984907;28;20041;-81
2022/10/02 01:20:50;;;;;;;15.48;5.25;;;;;;;12.23;100.00;68132.31;4990350;28;20046;-79
2022/10/02 01:23:35;;;;;;;20.48;5.18;;;;;;;;;;4997222;28;20080;-82
2022/10/02 01:26:01;;;;;;;16.30;4.90;;;;;;;12.20;100.00;68128.91;5000173;28;20568;-81
2022/10/02 01:28:26;;;;;;;20.15;5.45;;;;;;;;;;4997423;28;20034;-81
2022/10/02 01:30:58;;;;;;;19.48;6.10;;;;;;;12.18;100.00;68121.31;4990578;28;20045;-80
2022/10/02 01:33:23;;;;;;;15.90;4.60;;;;;;;;;;4991879;28;20456;-80
2022/10/02 01:35:49;;;;;;;19.95;5.25;;;;;;;12.19;100.00;68130.44;4989570;28;20125;-80
2022/10/02 01:38:17;;;;;;;13.82;4.97;;;;;;;;;;4988391;28;20105;-80
2022/10/02 01:40:42;;;;;;;13.10;4.70;;;;;;;;;;4988942;28;20124;-80
2022/10/02 01:43:11;;;;;;;18.38;5.68;;;;;;;12.14;100.00;68114.06;4988771;28;20102;-80
2022/10/02 01:45:55;;;;;;;17.02;5.18;;;;;;;;;;4986194;28;20046;-79
2022/10/02 01:48:44;;;;;;;14.55;5.15;;;;;;;12.14;100.00;68117.34;4983856;28;20489;-81
2022/10/02 01:51:28;;;;;;;16.77;5.55;;;;;;;12.12;100.00;68114.50;4982613;28;20054;-81
2022/10/02 01:54:02;;;;;;;15.73;4.20;;;;;;;;;;4988133;28;20416;-80
2022/10/02 01:56:46;;;;;;;15.60;4.60;;;;;;;12.15;100.00;68117.91;4987651;28;20051;-80
2022/10/02 01:59:17;;;;;;;15.50;3.90;;;;;;;;;;4985678;28;20050;-80
2022/10/02 02:01:51;;;;;;;11.98;4.57;;;;;;;12.16;100.00;68124.94;4987996;28;20046;-80
2022/10/02 02:04:24;;;;;;;16.17;3.97;;;;;;;12.17;100.00;68120.75;4986826;28;20046;-80
2022/10/02 02:07:07;;;;;;;13.25;3.70;;;;;;;12.21;100.00;68124.16;4986395;28;20674;-80
2022/10/02 02:09:50;;;;;;;11.10;3.97;;;;;;;12.24;100.00;68127.56;4985582;28;20042;-79
2022/10/02 02:12:38;;;;;;;11.52;3.75;;;;;;;12.26;100.00;68130.41;4985047;28;20050;-80
2022/10/02 02:15:10;;;;;;;12.38;3.97;;;;;;;12.21;100.00;68129.47;4987976;28;20046;-81
2022/10/02 02:17:40;;;;;;;13.50;4.05;;;;;;;;;;4987125;28;20038;-80
2022/10/02 02:20:08;;;;;;;13.90;4.40;;;;;;;;;;4990529;28;20061;-79
2022/10/02 02:22:41;;;;;;;15.63;2.93;;;;;;;12.11;100.00;68111.25;4985564;28;20046;-79
2022/10/02 02:25:11;;;;;;;9.93;3.25;;;;;;;12.09;100.00;68111.66;4988072;28;20296;-80
2022/10/02 02:27:43;;;;;;;11.77;4.18;;;;;;;12.04;100.00;68105.41;4985793;28;20130;-81
2022/10/02 02:30:10;;;;;;;16.05;4.78;;;;;;;;;;5008150;23;20056;-84
2022/10/02 02:32:42;;;;;;;11.13;3.33;;;;;;;11.92;100.00;68090.22;4990935;28;20042;-81
2022/10/02 02:35:17;;;;;;;19.10;4.40;;;;;;;11.85;100.00;68084.34;4989543;28;20043;-81
2022/10/02 02:37:45;;;;;;;11.98;3.45;;;;;;;11.76;100.00;68080.03;4974590;28;20047;-81
2022/10/02 02:40:16;;;;;;;12.25;3.70;;;;;;;11.75;100.00;68074.13;4971914;28;20580;-82
2022/10/02 02:42:50;;;;;;;11.65;3.35;;;;;;;11.71;100.00;68069.59;4995485;28;20053;-82
2022/10/02 02:45:23;;;;;;;12.48;3.92;;;;;;;11.70;100.00;68067.88;4992531;28;20125;-82
2022/10/02 02:48:01;;;;;;;11.40;4.10;;;;;;;11.67;100.00;68070.38;4988453;28;20078;-82
2022/10/02 02:50:26;;;;;;;9.98;4.35;;;;;;;;;;4972237;28;20497;-82
2022/10/02 02:52:55;;;;;;;13.17;5.30;;;;;;;;;;4995626;28;20109;-82
2022/10/02 02:55:31;;;;;;;16.02;7.60;;;;;;;;;;4993959;28;20290;-82
2022/10/02 02:58:16;;;;;;;21.08;10.95;;;;;;;11.66;100.00;68058.59;4985217;28;20296;-82
2022/10/02 03:00:42;;;;;;;23.08;14.18;;;;;;;11.70;100.00;68067.88;4993419;28;20779;-82
2022/10/02 03:03:07;;;;;;;25.23;13.00;;;;;;;;;;5002142;28;20066;-82
2022/10/02 03:05:36;;;;;;;25.37;15.17;;;;;;;11.75;100.00;68078.91;5003349;28;20093;-82
2022/10/02 03:08:11;;;;;;;30.70;18.67;;;;;;;11.77;100.00;68075.25;4996478;28;20308;-82
2022/10/02 03:10:53;;;;;;;31.88;18.60;;;;;;;11.79;100.00;68074.88;5004881;28;20053;-82
2022/10/02 03:13:48;;;;;;;36.47;21.55;;;;;;;;;;5008556;28;20060;-82
2022/10/02 03:16:20;;;;;;;29.38;21.80;;;;;;;11.81;100.00;68080.38;4978714;28;20050;-82
2022/10/02 03:19:13;;;;;;;35.70;21.23;;;;;;;11.80;100.00;68078.69;4979819;28;20551;-82
2022/10/02 03:21:44;;;;;;;29.60;18.50;;;;;;;11.80;100.00;68078.69;4973248;28;20053;-82
2022/10/02 03:24:19;;;;;;;30.25;19.08;;;;;;;11.81;100.00;68077.16;4999403;28;20046;-82
2022/10/02 03:27:21;;;;;;;30.65;20.13;;;;;;;11.81;100.00;68079.81;4992164;28;20129;-83
2022/10/02 03:30:08;;;;;;;35.42;22.38;;;;;;;11.80;100.00;68076.59;4936301;28;20262;-82
2022/10/02 03:32:34;;;;;;;35.85;21.88;;;;;;;;;;4999348;28;20038;-82
2022/10/02 03:35:01;;;;;;;35.10;24.15;;;;;;;11.82;100.00;68080.94;4978033;28;20042;-82
2022/10/02 03:37:28;;;;;;;37.72;23.35;;;;;;;11.86;100.00;68085.53;4971896;28;20034;-83
2022/10/02 03:39:57;;;;;;;38.80;22.45;;;;;;;11.83;100.00;68082.66;4988359;28;20038;-82
2022/10/02 03:42:26;;;;;;;39.28;23.20;;;;;;;11.86;100.00;68090.84;4996571;28;20609;-82
2022/10/02 03:44:51;;;;;;;37.58;22.90;;;;;;;;;;4999208;28;20041;-83
2022/10/02 03:47:16;;;;;;;38.92;22.45;;;;;;;;;;4993476;28;20358;-82
2022/10/02 03:49:42;;;;;;;48.25;26.75;;;;;;;11.85;100.00;68084.94;4991947;28;20043;-83
2022/10/02 03:52:12;;;;;;;42.13;24.42;;;;;;;;;;4995247;28;20057;-83
2022/10/02 03:54:38;;;;;;;44.28;25.05;;;;;;;11.89;100.00;68088.94;4989827;28;20045;-83
2022/10/02 03:57:04;;;;;;;40.67;27.85;;;;;;;;;;4984586;28;20046;-83
2022/10/02 03:59:37;;;;;;;42.75;24.55;;;;;;;11.87;100.00;68083.97;4982907;28;20050;-83
2022/10/02 04:02:08;;;;;;;47.40;25.40;;;;;;;11.85;100.00;68084.34;4969202;28;20046;-83
2022/10/02 04:04:42;;;;;;;37.97;21.63;;;;;;;11.83;100.00;68080.00;4977691;28;20046;-83
2022/10/02 04:07:11;;;;;;;49.85;29.90;;;;;;;;;;4985061;28;20043;-82
2022/10/02 04:09:53;;;;;;;47.30;26.45;;;;;;;11.81;100.00;68077.16;4988326;28;20046;-82
2022/10/02 04:12:27;;;;;;;46.25;30.23;;;;;;;11.76;100.00;68074.69;4991870;28;20524;-82
2022/10/02 04:14:59;;;;;;;45.20;26.75;;;;;;;11.73;100.00;68071.84;4997214;28;20501;-83
2022/10/02 04:17:45;;;;;;;45.80;28.55;;;;;;;11.73;100.00;68071.84;4989765;28;20374;-82
2022/10/02 04:20:40;;;;;;;45.67;27.75;;;;;;;11.69;100.00;68066.75;4991923;28;20069;-82
2022/10/02 04:23:12;;;;;;;46.40;26.23;;;;;;;;;;4954584;28;20052;-82
2022/10/02 04:25:43;;;;;;;46.28;22.42;;;;;;;11.69;100.00;68066.75;4994299;28;20050;-83
2022/10/02 04:28:16;;;;;;;44.55;22.75;;;;;;;11.69;100.00;68064.09;4985038;28;20074;-83
2022/10/02 04:30:41;;;;;;;45.53;26.30;;;;;;;;;;4990918;28;20045;-83
2022/10/02 04:33:12;;;;;;;41.55;21.15;;;;;;;11.70;100.00;68065.78;4981834;28;20046;-83
2022/10/02 04:35:49;;;;;;;37.55;20.30;;;;;;;11.73;100.00;68066.53;4970350;28;20085;-83
2022/10/02 04:38:40;;;;;;;46.85;20.65;;;;;;;11.74;100.00;68072.44;4969511;28;20054;-83
2022/10/02 04:41:20;;;;;;;39.58;19.05;;;;;;;11.73;100.00;68071.28;4974479;28;20064;-83
2022/10/02 04:44:14;;;;;;;32.65;18.45;;;;;;;11.70;100.00;68067.88;4954354;28;20038;-82
2022/10/02 04:47:07;;;;;;;37.78;17.65;;;;;;;11.73;100.00;68076.63;4992707;28;20042;-82
2022/10/02 04:50:07;;;;;;;33.28;17.05;;;;;;;11.72;100.00;68075.50;4987050;28;20038;-83
2022/10/02 04:52:44;;;;;;;46.25;18.38;;;;;;;11.73;100.00;68071.28;4964565;28;20042;-83
2022/10/02 04:55:19;;;;;;;32.13;15.90;;;;;;;;;;4992431;28;20050;-82
2022/10/02 04:57:47;;;;;;;40.95;16.85;;;;;;;;;;4991488;28;20050;-82
2022/10/02 05:00:14;;;;;;;38.53;14.18;;;;;;;11.75;100.00;68078.91;4987704;28;20062;-82
2022/10/02 05:02:51;;;;;;;41.50;14.50;;;;;;;11.75;100.00;68073.56;4994919;28;20101;-82
2022/10/02 05:05:24;;;;;;;35.63;15.10;;;;;;;11.76;100.00;68074.69;4969613;28;20053;-82
2022/10/02 05:08:14;;;;;;;34.72;16.42;;;;;;;11.79;100.00;68072.19;4986334;28;20058;-83
2022/10/02 05:10:56;;;;;;;43.47;14.15;;;;;;;11.78;100.00;68076.97;4987928;28;20473;-83
2022/10/02 05:13:21;;;;;;;35.38;15.43;;;;;;;;;;4984801;28;20110;-83
2022/10/02 05:16:06;;;;;;;33.67;14.80;;;;;;;11.79;100.00;68078.09;4989539;28;20108;-83
2022/10/02 05:19:15;;;;;;;33.28;15.10;;;;;;;11.80;100.00;68078.69;4985682;28;23095;-83
2022/10/02 05:22:13;;;;;;;33.17;15.95;;;;;;;11.78;100.00;68076.97;4961089;28;20100;-83
2022/10/02 05:24:41;;;;;;;35.00;14.82;;;;;;;;;;4990143;28;20038;-83
2022/10/02 05:27:31;;;;;;;41.78;16.35;;;;;;;11.76;100.00;68074.69;4987157;28;20050;-83
2022/10/02 05:30:04;;;;;;;37.65;12.75;;;;;;;11.73;100.00;68077.19;4968709;28;20050;-83
2022/10/02 05:32:35;;;;;;;36.90;13.52;;;;;;;11.74;100.00;68072.44;4992849;28;20135;-83
2022/10/02 05:35:22;;;;;;;38.08;13.43;;;;;;;11.80;100.00;68084.03;4993473;28;20038;-85
2022/10/02 05:38:14;;;;;;;42.97;15.95;;;;;;;11.84;100.00;68081.13;4967264;28;20735;-83
2022/10/02 05:40:45;;;;;;;42.55;15.55;;;;;;;11.83;100.00;68087.44;4989424;28;20066;-83
2022/10/02 05:43:22;;;;;;;41.40;13.52;;;;;;;11.86;100.00;68083.41;5000264;28;20057;-83
2022/10/02 05:45:51;;;;;;;36.45;12.98;;;;;;;;;;4954408;28;20069;-83
2022/10/02 05:48:22;;;;;;;33.80;12.82;;;;;;;11.85;100.00;68081.69;4985867;28;20046;-83
2022/10/02 05:50:50;;;;;;;33.03;12.50;;;;;;;;;;4989736;28;20042;-82
2022/10/02 05:53:46;;;;;;;40.47;13.25;;;;;;;11.86;100.00;68085.53;4993916;28;20046;-82
2022/10/02 05:56:14;;;;;;;38.55;15.23;;;;;;;;;;4979703;28;20049;-82
2022/10/02 05:58:52;;;;;;;35.53;13.20;;;;;;;;;;4984864;28;20043;-82
2022/10/02 06:01:29;;;;;;;34.90;12.63;;;;;;;11.84;100.00;68083.78;4994699;28;20046;-82
2022/10/02 06:04:00;;;;;;;38.35;13.85;;;;;;;;;;4985869;28;20038;-82
2022/10/02 06:06:32;;;;;;;40.17;13.80;;;;;;;;;;4983450;28;20052;-82
2022/10/02 06:09:13;;;;;;;35.03;13.20;;;;;;;;;;4991913;28;20034;-81
2022/10/02 06:11:46;;;;;;;40.55;13.13;;;;;;;;;;4990377;28;20070;-82
2022/10/02 06:14:26;;;;;;;46.38;13.65;;;;;;;11.87;100.00;68091.97;4997874;28;20045;-83
2022/10/02 06:16:58;;;;;;;40.58;13.23;;;;;;;11.88;100.00;68088.38;4973473;28;20053;-82
2022/10/02 06:19:29;;;;;;;36.30;10.85;;;;;;;11.87;100.00;68083.97;4988612;28;20046;-82
2022/10/02 06:21:58;;;;;;;35.78;11.25;;;;;;;;;;4999402;28;20042;-83
2022/10/02 06:24:29;;;;;;;38.72;13.40;;;;;;;11.88;100.00;68088.38;4996371;28;20158;-83
2022/10/02 06:26:59;;;;;;;43.50;14.70;;;;;;;;;;4978162;28;20751;-83
2022/10/02 06:29:35;;;;;;;35.47;14.35;;;;;;;11.95;100.00;68096.31;4994820;28;20045;-82
2022/10/02 06:32:09;;;;;;;46.22;15.25;;;;;;;11.97;100.00;68095.34;4997065;28;20042;-82
2022/10/02 06:34:34;;;;;;;44.10;13.65;;;;;;;11.98;100.00;68099.16;4966272;28;20043;-83
2022/10/02 06:37:26;;;;;;;45.03;14.45;;;;;;;;;;4997975;28;20125;-82
2022/10/02 06:40:29;;;;;;;40.72;12.18;;;;;;;12.03;100.00;68104.28;4951832;28;20412;-83
2022/10/02 06:43:09;;;;;;;38.22;12.00;;;;;;;;;;4955337;28;20420;-82
2022/10/02 06:46:07;;;;;;;32.10;11.73;;;;;;;12.02;100.00;68103.69;4989545;28;20401;-83
2022/10/02 06:48:32;;;;;;;37.58;10.75;;;;;;;;;;4987110;28;20050;-82
2022/10/02 06:51:15;;;;;;;29.50;9.80;;;;;;;;;;4989529;28;20047;-82
2022/10/02 06:53:50;;;;;;;33.35;10.80;;;;;;;;;;4991579;28;20291;-82
2022/10/02 06:56:53;;;;;;;29.15;9.82;;;;;;;12.12;100.00;68111.81;4992991;28;20480;-81
2022/10/02 06:59:41;;;;;;;34.53;9.48;;;;;;;;;;4986941;28;20049;-84
2022/10/02 07:02:06;;;;;;;31.43;8.67;;;;;;;;;;4954604;28;20054;-83
2022/10/02 07:04:43;;;;;;;25.23;7.77;;;;;;;12.21;100.00;68119.38;4990055;28;20046;-82
2022/10/02 07:07:43;;;;;;;33.75;10.05;;;;;;;12.23;100.00;68127.00;4996450;28;20296;-83
2022/10/02 07:10:42;;;;;;;31.65;11.02;;;;;;;12.29;100.00;68133.25;4974293;28;20125;-83
2022/10/02 07:13:26;;;;;;;35.20;11.73;;;;;;;;;;4970390;28;20136;-82
2022/10/02 07:16:12;;;;;;;32.38;10.80;;;;;;;12.31;100.00;68136.06;4944584;28;20053;-82
2022/10/02 07:19:09;;;;;;;30.48;10.57;;;;;;;12.33;100.00;68137.78;4992218;28;20096;-83
2022/10/02 07:21:35;;;;;;;36.47;12.70;;;;;;;12.38;100.00;68141.34;4993390;28;20038;-82
2022/10/02 07:24:28;;;;;;;31.27;9.82;;;;;;;12.40;100.00;68146.31;4995076;28;20042;-83
2022/10/02 07:27:02;;;;;;;30.95;12.18;;;;;;;12.45;100.00;68151.41;4969867;28;20053;-83
2022/10/02 07:29:40;;;;;;;29.80;7.97;;;;;;;12.47;100.00;68153.13;4990029;28;20118;-83
2022/10/02 07:32:37;;;;;;;32.42;9.80;;;;;;;12.52;100.00;68159.38;4991865;28;20109;-83
2022/10/02 07:35:26;;;;;;;28.40;9.52;;;;;;;12.55;100.00;68162.78;4971854;28;20401;-83
2022/10/02 07:38:22;;;;;;;28.70;8.45;;;;;;;12.59;100.00;68164.09;4933312;28;20180;-82
2022/10/02 07:41:01;;;;;;;29.73;9.90;;;;;;;12.61;100.00;68169.03;4992013;28;20208;-83
2022/10/02 07:43:39;;;;;;;30.08;9.43;;;;;;;12.64;100.00;68172.44;4991675;28;20042;-83
2022/10/02 07:46:19;;;;;;;21.02;8.15;;;;;;;;;;4993373;28;20046;-83
2022/10/02 07:49:00;;;;;;;25.80;9.35;;;;;;;12.70;100.00;68179.25;4992657;28;20042;-83
2022/10/02 07:51:47;;;;;;;27.65;10.25;;;;;;;;;;4994211;28;20042;-83
2022/10/02 07:54:18;;;;;;;26.30;8.80;;;;;;;;;;4986978;28;20046;-82
2022/10/02 07:56:47;;;;;;;26.67;9.27;;;;;;;12.82;100.00;68198.25;4990977;28;20054;-82
2022/10/02 07:59:16;;;;;;;34.13;9.32;;;;;;;12.85;100.00;68201.66;4992322;28;20044;-83
2022/10/02 08:01:44;;;;;;;19.37;9.63;;;;;;;12.90;100.00;68200.88;4992609;28;20141;-85
2022/10/02 08:04:15;;;;;;;28.60;8.50;;;;;;;12.96;100.00;68207.69;4987092;28;20434;-83
2022/10/02 08:06:40;;;;;;;28.83;8.80;;;;;;;13.01;100.00;68210.69;4991693;28;20045;-83
2022/10/02 08:09:20;;;;;;;24.75;7.68;;;;;;;12.99;100.00;68209.00;4975835;28;20046;-83
2022/10/02 08:11:54;;;;;;;22.63;6.90;;;;;;;13.02;100.00;68214.50;4987177;28;20050;-82
2022/10/02 08:14:28;;;;;;;19.67;7.38;;;;;;;13.06;100.00;68219.03;4991832;28;20042;-83
2022/10/02 08:16:59;;;;;;;21.10;7.07;;;;;;;13.10;100.00;68229.50;4992536;28;20042;-83
2022/10/02 08:19:40;;;;;;;23.92;6.82;;;;;;;13.19;100.00;68233.25;4981212;28;20366;-84
2022/10/02 08:22:14;;;;;;;20.38;5.90;;;;;;;13.22;100.00;68236.69;4980474;28;20045;-83
2022/10/02 08:24:45;;;;;;;24.55;7.18;;;;;;;13.30;100.00;68245.81;4990127;28;20414;-83
2022/10/02 08:27:32;;;;;;;25.58;5.85;;;;;;;13.35;100.00;68248.81;4988081;28;20047;-83
2022/10/02 08:30:02;;;;;;;13.98;5.28;;;;;;;;;;4973943;28;20047;-84
2022/10/02 08:32:32;;;;;;;22.77;6.32;;;;;;;13.51;100.00;68269.09;4981468;28;20054;-84
2022/10/02 08:34:59;;;;;;;20.52;6.60;;;;;;;13.64;100.00;68283.91;4990714;28;20054;-85
2022/10/02 08:37:50;;;;;;;16.27;6.18;;;;;;;;;;4988523;28;20039;-84
2022/10/02 08:40:18;;;;;;;21.55;6.63;;;;;;;;;;4981544;28;20043;-84
2022/10/02 08:43:07;;;;;;;18.23;5.63;;;;;;;13.75;100.00;68295.84;4980980;28;20045;-84
2022/10/02 08:46:05;;;;;;;16.45;5.55;;;;;;;13.77;100.00;68298.13;4987880;28;20038;-84
2022/10/02 08:49:18;;;;;;;25.13;6.30;;;;;;;13.88;100.00;68310.06;4983697;28;20118;-86
2022/10/02 08:52:15;;;;;;;24.23;7.40;;;;;;;13.98;100.00;68321.44;4970824;28;20049;-85
2022/10/02 08:55:12;;;;;;;21.20;7.18;;;;;;;;;;4965801;28;20567;-84
2022/10/02 08:57:55;;;;;;;15.07;5.15;;;;;;;14.08;100.00;68332.81;4929679;28;20478;-84
2022/10/02 09:00:40;;;;;;;20.50;5.47;;;;;;;14.10;100.00;68335.09;4990420;28;20046;-85
2022/10/02 09:03:24;;;;;;;16.80;4.95;;;;;;;14.13;100.00;68337.94;4968252;28;20486;-85
2022/10/02 09:06:14;;;;;;;13.73;5.60;;;;;;;14.11;100.00;68336.22;4968705;28;20125;-84
2022/10/02 09:08:45;;;;;;;22.20;4.85;;;;;;;;;;4982441;28;20208;-83
2022/10/02 09:11:49;;;;;;;13.52;4.35;;;;;;;14.16;100.00;68341.94;4985442;28;20039;-84
2022/10/02 09:14:31;;;;;;;15.93;4.00;;;;;;;;;;4974685;28;20042;-84
2022/10/02 09:17:18;;;;;;;16.98;4.22;;;;;;;14.23;100.00;68349.31;4956049;28;20109;-84
2022/10/02 09:19:48;;;;;;;15.82;5.55;;;;;;;14.35;100.00;68362.97;4983680;28;20208;-83
2022/10/02 09:22:22;;;;;;;14.40;4.97;;;;;;;14.50;100.00;68376.22;4992257;28;20512;-84
2022/10/02 09:25:00;;;;;;;14.15;5.35;;;;;;;14.59;100.00;68389.19;4972627;28;20573;-84
2022/10/02 09:27:37;;;;;;;14.48;4.90;;;;;;;14.61;100.00;68392.03;4990817;28;20053;-84
2022/10/02 09:30:34;;;;;;;14.25;4.28;;;;;;;14.66;100.00;68397.72;4989521;28;20042;-85
2022/10/02 09:33:41;;;;;;;16.80;4.10;;;;;;;14.65;100.00;68393.91;4986414;28;20193;-84
2022/10/02 09:36:27;;;;;;;9.02;3.38;;;;;;;;;;4897301;29;20130;-84
2022/10/02 09:38:55;;;;;;;14.02;3.47;;;;;;;14.78;100.00;68410.25;4976985;28;20125;-84
2022/10/02 09:41:59;;;;;;;14.57;3.93;;;;;;;14.76;100.00;68405.28;4987440;28;20089;-84
2022/10/02 09:44:44;;;;;;;11.63;3.78;;;;;;;;;;4974784;28;20050;-84
2022/10/02 09:47:35;;;;;;;14.95;3.38;;;;;;;14.88;100.00;68416.28;4987984;28;20049;-86
2022/10/02 09:50:50;;;;;;;14.32;4.00;;;;;;;15.02;100.00;68437.59;4946434;28;20572;-84
2022/10/02 09:53:28;;;;;;;15.23;3.90;;;;;;;14.98;100.00;68433.00;4906786;28;20055;-85
2022/10/02 09:56:02;;;;;;;12.43;3.83;;;;;;;15.09;100.00;68445.53;4973436;28;20047;-85
2022/10/02 09:58:58;;;;;;;15.23;3.50;;;;;;;15.17;100.00;68450.84;4987813;28;20499;-84
2022/10/02 10:01:51;;;;;;;13.65;3.10;;;;;;;15.20;100.00;68451.59;4977358;28;20042;-84
2022/10/02 10:04:47;;;;;;;11.93;2.55;;;;;;;15.18;100.00;68455.22;4981911;28;20089;-84
2022/10/02 10:07:22;;;;;;;14.40;3.08;;;;;;;15.25;100.00;68459.97;4959354;28;20104;-83
2022/10/02 10:10:12;;;;;;;8.90;2.92;;;;;;;15.33;100.00;68472.31;4990064;28;20054;-84
2022/10/02 10:12:52;;;;;;;12.98;3.25;;;;;;;;;;4971280;28;20050;-85
2022/10/02 10:15:28;;;;;;;9.10;2.67;;;;;;;15.35;98.65;68474.03;4972823;28;20034;-85
2022/10/02 10:18:14;;;;;;;11.50;3.13;;;;;;;15.42;98.43;68476.06;4967112;28;20042;-85
2022/10/02 10:20:42;;;;;;;12.85;2.58;;;;;;;15.49;97.97;68487.28;4979349;28;20069;-85
2022/10/02 10:23:41;;;;;;;15.23;2.67;;;;;;;15.62;98.36;68503.63;4987868;28;20100;-85
2022/10/02 10:26:26;;;;;;;8.18;2.28;;;;;;;;;;4970662;28;20058;-85
2022/10/02 10:29:14;;;;;;;12.40;2.80;;;;;;;15.57;95.20;68498.53;4969823;28;20046;-85
2022/10/02 10:32:01;;;;;;;12.10;2.85;;;;;;;15.55;94.59;68494.13;4985921;28;20123;-85
2022/10/02 10:34:29;;;;;;;9.25;2.55;;;;;;;;;;4985234;28;20049;-84
2022/10/02 10:39:49;;;;;;;13.20;2.00;;;;;;;15.70;92.33;68512.78;4986120;28;20084;-81
2022/10/02 10:42:33;;;;;;;46.88;3.83;;;;;;;15.99;93.73;68542.56;4988875;28;20062;-80
2022/10/02 10:45:21;;;;;;;12.45;2.45;;;;;;;15.94;90.58;68536.88;4972253;28;20105;-82
2022/10/02 10:47:58;;;;;;;10.43;2.60;;;;;;;15.80;90.13;68521.50;4988738;28;20042;-80
2022/10/02 10:50:48;;;;;;;12.38;2.47;;;;;;;15.89;90.34;68531.75;4986951;28;20118;-80
2022/10/02 10:53:32;;;;;;;10.93;2.10;;;;;;;15.97;89.85;68540.31;4991951;28;20050;-81
2022/10/02 10:56:34;;;;;;;8.82;1.98;;;;;;;15.93;89.70;68538.97;4965290;28;20505;-81
2022/10/02 10:59:27;;;;;;;10.45;2.00;;;;;;;15.94;88.69;68536.88;4953862;28;20545;-81
2022/10/02 11:02:04;;;;;;;6.65;1.83;;;;;;;16.04;88.45;68550.38;4988973;28;20073;-81
2022/10/02 11:04:29;;;;;;;15.23;2.67;;;;;;;16.09;88.21;68550.72;4966714;28;20062;-81
2022/10/02 11:07:21;;;;;;;8.52;2.13;;;;;;;16.10;87.27;68557.22;4984914;28;20077;-80
2022/10/02 11:10:11;;;;;;;8.98;1.98;;;;;;;16.14;86.76;68559.09;4983937;28;20050;-80
2022/10/02 11:12:58;;;;;;;8.70;1.92;;;;;;;16.14;86.66;68559.09;4993081;28;20041;-81
2022/10/02 11:15:48;;;;;;;10.90;2.13;;;;;;;16.22;87.20;68568.22;4987143;28;20081;-80
2022/10/02 11:18:43;;;;;;;5.47;1.60;;;;;;;16.27;87.35;68571.22;4972082;28;20042;-80
2022/10/02 11:21:14;;;;;;;13.25;2.20;;;;;;;16.35;88.56;68582.47;4898084;28;20051;-81
2022/10/02 11:23:58;;;;;;;7.43;2.00;;;;;;;16.34;86.38;68581.91;4988648;28;20050;-81
2022/10/02 11:26:39;;;;;;;8.88;1.60;;;;;;;16.39;87.05;68587.59;4987592;28;20047;-81
2022/10/02 11:29:11;;;;;;;7.82;1.65;;;;;;;16.47;87.75;68599.41;4988071;28;20042;-81
2022/10/02 11:31:36;;;;;;;7.32;1.63;;;;;;;;;;4988833;28;20401;-81
2022/10/02 11:34:28;;;;;;;12.70;2.10;;;;;;;16.52;86.02;68603.97;4977207;28;20042;-81
2022/10/02 11:37:12;;;;;;;12.20;1.98;;;;;;;16.57;84.82;68606.97;4939682;28;20042;-81
2022/10/02 11:39:59;;;;;;;7.70;1.60;;;;;;;16.60;83.30;68610.38;4991329;28;20053;-81
2022/10/02 11:43:10;;;;;;;9.90;2.00;;;;;;;16.59;83.03;68609.81;4984686;28;20140;-82
2022/10/02 11:45:56;;;;;;;8.65;1.88;;;;;;;16.57;82.69;68610.25;4930336;28;20046;-79
2022/10/02 11:48:45;;;;;;;6.38;1.40;;;;;;;16.63;84.26;68613.81;4974531;28;20513;-79
2022/10/02 11:51:49;;;;;;;12.73;2.55;;;;;;;16.53;82.48;68605.09;4972148;28;20097;-78
2022/10/02 11:54:43;;;;;;;10.05;2.30;;;;;;;16.45;81.39;68591.75;4978822;28;20073;-79
2022/10/02 11:57:31;;;;;;;10.35;2.20;;;;;;;16.36;81.75;68583.59;4974825;28;20126;-80
2022/10/02 12:00:32;;;;;;;6.60;1.50;;;;;;;16.31;82.78;68575.78;4977169;28;22250;-81
2022/10/02 12:03:15;;;;;;;8.82;2.03;;;;;;;16.23;83.40;68572.63;4986213;28;20121;-80
2022/10/02 12:05:54;;;;;;;7.45;1.90;;;;;;;16.21;83.83;68567.06;5005734;28;20046;-80
2022/10/02 12:08:34;;;;;;;7.40;2.20;;;;;;;;;;4996833;28;20038;-81
2022/10/02 12:11:08;;;;;;;11.68;1.75;;;;;;;16.50;82.59;68599.56;4999790;28;20066;-80
2022/10/02 12:13:46;;;;;;;10.77;2.33;;;;;;;16.56;83.65;68606.41;4991645;28;20046;-80
2022/10/02 12:16:38;;;;;;;9.88;2.00;;;;;;;16.46;83.92;68595.00;5000645;28;20113;-80
2022/10/02 12:19:13;;;;;;;7.90;2.15;;;;;;;16.45;85.05;68597.09;4969267;28;20126;-80
2022/10/02 12:28:27;;;;;;;6.65;1.70;;;;;;;16.29;81.72;68576.19;4987920;28;20104;-80
2022/10/02 12:31:05;;;;;;;8.73;2.28;;;;;;;16.13;82.14;68558.53;4976362;28;20415;-80
2022/10/02 12:33:46;;;;;;;7.32;1.63;;;;;;;16.12;82.46;68557.38;4993487;28;20124;-80
2022/10/02 12:36:23;;;;;;;8.63;2.55;;;;;;;16.24;82.48;68567.81;4994333;28;20038;-80
2022/10/02 12:39:20;;;;;;;9.80;2.53;;;;;;;16.15;81.01;68560.25;4992354;28;20042;-80
2022/10/02 12:42:02;;;;;;;5.65;1.42;;;;;;;16.05;80.78;68548.84;4993174;28;20122;-80
2022/10/02 12:44:33;;;;;;;9.18;1.75;;;;;;;16.01;81.95;68544.84;4992827;28;20045;-81
2022/10/02 12:47:17;;;;;;;9.32;1.98;;;;;;;16.09;82.21;68550.72;4990699;28;20034;-80
2022/10/02 12:49:52;;;;;;;9.90;2.13;;;;;;;16.09;82.77;68553.41;4992616;28;20088;-80
2022/10/02 12:52:34;;;;;;;7.72;1.80;;;;;;;16.07;82.42;68553.81;4988415;28;20062;-80
2022/10/02 12:55:08;;;;;;;8.75;1.77;;;;;;;16.19;82.08;68567.47;4973357;28;20067;-80
2022/10/02 12:57:51;;;;;;;9.18;2.03;;;;;;;16.22;78.32;68570.91;4993629;28;20043;-80
2022/10/02 13:00:29;;;;;;;7.20;2.15;;;;;;;16.45;79.20;68597.09;4997583;28;20053;-80
2022/10/02 13:03:23;;;;;;;6.22;1.55;;;;;;;16.66;76.08;68617.25;4969227;28;20050;-80
2022/10/02 13:05:52;;;;;;;8.82;1.83;;;;;;;16.89;74.07;68646.19;4986438;28;20042;-80